MMAS/AGU METAR and TAF weather

Enter ICAO airport designator
Station Type Date Time Source
MMAS METAR 2022/06/29 00:43 UTC NOAA

MMAS 290043Z 06011KT 9SM SCT050 BKN100 26/05 A3019 RMK 8/130 HZY


Station Type Date Time Source
MMAS Decoded METAR 2022/06/29 00:43 UTC NOAA

Aguascalientes, Ags., Mexico (MMAS) 21-53N 102-18W
Jun 28, 2022 - 08:43 PM EDT / 2022.06.29 0043 UTC
Wind: from the ENE (060 degrees) at 13 MPH (11 KT):0
Visibility: 9 mile(s):0
Sky conditions: mostly cloudy
Temperature: 78 F (26 C)
Dew Point: 41 F (5 C)
Relative Humidity: 25%
Pressure (altimeter): 30.19 in. Hg (1022 hPa)
ob: MMAS 290043Z 06011KT 9SM SCT050 BKN100 26/05 A3019 RMK 8/130 HZY
cycle: 0

Station Type Date Time Source
MMAS TAF 2022/06/28 18:08 UTC NOAA

TAF MMAS 281705Z 2818/2918 12012KT P6SM SCT040 BKN200 PROB40 2900/2904 5SM TSRA BKN030CB
FM290600 09010KT P6SM BKN100

Example: see airport list